createdAt,value
2023-04-13T00:06:24.744Z,96.62
2023-04-13T00:16:31.451Z,96.07
2023-04-13T00:26:34.281Z,96.51
2023-04-13T00:36:38.766Z,95.97
2023-04-13T00:46:42.376Z,97.32
2023-04-13T00:56:46.707Z,97.48
2023-04-13T01:06:57.812Z,94.72
2023-04-13T01:17:03.611Z,95.17
2023-04-13T01:27:11.412Z,94.33
2023-04-13T01:37:17.377Z,94.56
2023-04-13T01:47:23.760Z,93.73
2023-04-13T01:57:31.096Z,93.61
2023-04-13T02:07:34.622Z,94.28
2023-04-13T02:17:39.254Z,94.26
2023-04-13T02:27:42.886Z,95.19
2023-04-13T02:37:46.960Z,94.36
2023-04-13T02:47:49.653Z,94.94
2023-04-13T02:57:54.058Z,94.94
2023-04-13T03:07:56.960Z,94.90
2023-04-13T03:18:01.038Z,97.27
2023-04-13T03:28:03.861Z,98.58
2023-04-13T03:38:07.987Z,98.22
2023-04-13T03:48:10.931Z,100.43
2023-04-13T03:58:15.005Z,98.91
2023-04-13T04:08:17.740Z,100.87
2023-04-13T04:18:22.111Z,101.38
2023-04-13T04:28:24.821Z,101.28
2023-04-13T04:38:30.419Z,100.21
2023-04-13T04:48:33.578Z,100.45
2023-04-13T04:58:37.534Z,101.93
2023-04-13T05:08:40.246Z,101.93
2023-04-13T05:18:48.201Z,103.81
2023-04-13T05:28:51.942Z,103.64
2023-04-13T05:38:56.938Z,102.99
2023-04-13T05:49:01.654Z,103.29
2023-04-13T05:59:05.876Z,102.21
2023-04-13T06:09:08.754Z,101.98
2023-04-13T06:19:13.061Z,100.23
2023-04-13T06:29:16.076Z,98.61
2023-04-13T06:39:20.050Z,98.62
2023-04-13T06:49:22.759Z,96.17
2023-04-13T06:59:27.138Z,95.84
2023-04-13T07:09:29.799Z,94.60
2023-04-13T07:19:34.980Z,94.43
2023-04-13T07:29:37.651Z,93.69
2023-04-13T07:39:43.117Z,90.86
2023-04-13T07:49:45.795Z,89.26
2023-04-13T07:59:49.789Z,88.86
2023-04-13T08:09:53.511Z,87.18
2023-04-13T08:19:57.548Z,85.21
2023-04-13T08:30:02.132Z,84.38
2023-04-13T08:40:08.142Z,84.64
2023-04-13T08:50:12.176Z,82.33
2023-04-13T09:00:19.418Z,81.00
2023-04-13T09:10:22.327Z,83.49
2023-04-13T09:20:26.340Z,80.01
2023-04-13T09:30:28.997Z,77.02
2023-04-13T09:40:33.612Z,77.98
2023-04-13T09:50:36.942Z,80.01
2023-04-13T10:00:43.138Z,90.36
2023-04-13T10:10:47.349Z,91.72
2023-04-13T10:20:54.043Z,98.08
2023-04-13T10:30:56.835Z,97.04
2023-04-13T10:41:01.140Z,94.59
2023-04-13T10:51:04.338Z,90.75
2023-04-13T11:01:08.414Z,90.64
2023-04-13T11:11:14.792Z,85.82
2023-04-13T11:21:19.246Z,80.23
2023-04-13T11:31:21.956Z,83.67
2023-04-13T11:41:27.202Z,89.76
2023-04-13T11:51:31.062Z,98.94
2023-04-13T12:01:36.008Z,101.30
2023-04-13T12:11:44.734Z,96.07
2023-04-13T12:21:56.473Z,95.68
2023-04-13T12:32:01.892Z,94.22
2023-04-13T12:42:06.086Z,95.01
2023-04-13T12:52:08.769Z,72.08
2023-04-13T13:02:12.841Z,81.75
2023-04-13T13:12:15.899Z,74.46
2023-04-13T13:22:20.509Z,63.04
2023-04-13T13:32:23.361Z,72.35
2023-04-13T13:42:32.467Z,73.44
2023-04-13T13:52:51.882Z,71.37
2023-04-13T14:03:03.814Z,69.46
2023-04-13T14:13:06.605Z,67.22
2023-04-13T14:23:10.866Z,67.68
2023-04-13T14:33:14.653Z,66.72
2023-04-13T14:43:18.798Z,68.33
2023-04-13T14:53:21.739Z,62.53
2023-04-13T15:03:26.576Z,62.20
2023-04-13T15:13:29.383Z,63.02
2023-04-13T15:23:34.092Z,63.82
2023-04-13T15:33:37.890Z,63.07
2023-04-13T15:43:43.888Z,58.54
2023-04-13T15:53:46.514Z,56.73
2023-04-13T16:03:50.941Z,56.55
2023-04-13T16:13:53.731Z,57.61
2023-04-13T16:23:57.705Z,56.79
2023-04-13T16:34:00.396Z,59.51
2023-04-13T16:44:04.825Z,60.29
2023-04-13T16:54:07.536Z,59.39
2023-04-13T17:04:12.053Z,58.90
2023-04-13T17:14:14.788Z,59.08
2023-04-13T17:24:18.804Z,58.53
2023-04-13T17:34:21.430Z,58.92
2023-04-13T17:44:25.492Z,61.71
2023-04-13T17:54:28.385Z,62.16
2023-04-13T18:04:32.594Z,63.11
2023-04-13T18:14:35.618Z,63.76
2023-04-13T18:24:40.175Z,64.66
2023-04-13T18:34:43.976Z,65.94
2023-04-13T18:44:48.225Z,66.97
2023-04-13T18:54:51.171Z,68.78
2023-04-13T19:04:55.328Z,70.68
2023-04-13T19:14:58.057Z,72.51
2023-04-13T19:25:02.115Z,73.72
2023-04-13T19:35:05.618Z,75.08
2023-04-13T19:45:10.467Z,75.58
2023-04-13T19:55:13.413Z,76.64
2023-04-13T20:05:18.579Z,78.27
2023-04-13T20:15:21.358Z,79.18
2023-04-13T20:25:25.445Z,80.09
2023-04-13T20:35:28.290Z,80.75
2023-04-13T20:45:32.274Z,81.48
2023-04-13T20:55:34.935Z,82.33
2023-04-13T21:05:39.289Z,82.81
2023-04-13T21:15:41.939Z,83.29
2023-04-13T21:25:47.545Z,84.31
2023-04-13T21:35:50.411Z,85.84
2023-04-13T21:45:55.377Z,86.55
2023-04-13T21:55:58.036Z,86.70
2023-04-13T22:06:02.045Z,86.91
2023-04-13T22:16:05.052Z,87.39
2023-04-13T22:26:09.078Z,87.77
2023-04-13T22:36:19.386Z,87.65
2023-04-13T22:46:23.853Z,87.62
2023-04-13T22:56:26.931Z,87.61
2023-04-13T23:06:30.987Z,87.57
2023-04-13T23:16:33.940Z,88.21
2023-04-13T23:26:38.252Z,89.11
2023-04-13T23:36:41.095Z,89.27
2023-04-13T23:46:45.511Z,89.06
2023-04-13T23:56:48.143Z,89.28
